Historique des mesures à Cassis (13260), France
Quotidien Résumé Décembre 16, 2017 Unités:  Métrique    US   Métrique/US
« Précédent (Jour)
Suivant (Jour) »
Quotidien Hebdomadaire Mensuel Annuel Période au choix
  Maximum: Minimum: Moyenne:
Température: TemperatureC °C 5.4 °C 6.8 °C
Point de rosée: DewpointC °C -0.7 °C 0.2 °C
Humidité: Humidity % 54 % 60 %
Vitesse du vent: 0 km/h 0 km/h 14.6 km/h
Rafales: 0 km/h - -
Vent:- - SSE
Pression: PressurehPa hPa 1002.6 hPa -
Précipitations: 0.0 mm    
Historical Graphs
 
 
Mesures pour : Décembre 16, 2017
Heure Temperature Point de rosée Pression Vent Vitesse du vent Rafales Humidité Pluie (par heure) Conditions
TemperatureC °C DewpointC °C PressurehPa hPa Calm     Humidity % HourlyPrecipMM mm SoftwareType W/m2
00:11 8.2 °C 2.2 °C 1002.6 hPa Calm   33.6 km/h 66 % 0.0 mm open2300-1.11 W/m2
01:10 7.6 °C 1.8 °C 1002.6 hPa Calm     67 % 0.0 mm open2300-1.11 W/m2
02:10 7.3 °C 1.6 °C 1002.9 hPa Calm     67 % 0.0 mm open2300-1.11 W/m2
03:10 6.9 °C 1.2 °C 1003.3 hPa WNW 22.5 km/h 39.4 km/h 67 % 0.0 mm open2300-1.11 W/m2
05:10 6.4 °C 0.1 °C 1003.9 hPa Calm   10.3 km/h 64 % 0.0 mm open2300-1.11 W/m2
06:10 5.9 °C -0.6 °C 1004.6 hPa Calm     63 % 0.0 mm open2300-1.11 W/m2
07:10 5.6 °C -0.7 °C 1005.3 hPa Calm     64 % 0.0 mm open2300-1.11 W/m2
08:10 5.8 °C -0.3 °C 1005.6 hPa Calm   18.7 km/h 65 % 0.0 mm open2300-1.11 W/m2
09:10 6.2 °C -0.1 °C 1006.7 hPa Calm   52 km/h 64 % 0.0 mm open2300-1.11 W/m2
10:10 6.7 °C 0.3 °C 1007.7 hPa Calm   28.5 km/h 64 % 0.0 mm open2300-1.11 W/m2
11:10 7.3 °C 0.9 °C 1008.0 hPa Calm   20.3 km/h 64 % 0.0 mm open2300-1.11 W/m2
12:10 8.5 °C 0.4 °C 1006.7 hPa North 16.3 km/h 52.8 km/h 57 % 0.0 mm open2300-1.11 W/m2
13:10 9.1 °C 0.2 °C 1007.0 hPa NNW 17.4 km/h 37 km/h 54 % 0.0 mm open2300-1.11 W/m2
14:10 8.9 °C 0.8 °C 1008.0 hPa NE 12.7 km/h 23.8 km/h 57 % 0.0 mm open2300-1.11 W/m2
15:10 8.9 °C 0.3 °C 1008.7 hPa WNW 54.9 km/h 54.9 km/h 55 % 0.0 mm open2300-1.11 W/m2
16:10 8.5 °C -0.3 °C 1009.7 hPa North 3.4 km/h 17.4 km/h 54 % 0.0 mm open2300-1.11 W/m2
17:10 7.8 °C -0.5 °C 1010.4 hPa NW 31.9 km/h 31.9 km/h 56 % 0.0 mm open2300-1.11 W/m2
18:10 7.3 °C -0.2 °C 1010.7 hPa NW 56.6 km/h 56.6 km/h 59 % 0.0 mm open2300-1.11 W/m2
19:10 6.7 °C -0.1 °C 1011.4 hPa North 29 km/h 51.5 km/h 62 % 0.0 mm open2300-1.11 W/m2
20:10 6.6 °C -0.6 °C 1012.1 hPa NNW 26.7 km/h 26.7 km/h 60 % 0.0 mm open2300-1.11 W/m2
21:10 6.1 °C -0.2 °C 1013.1 hPa North 30.7 km/h 30.7 km/h 64 % 0.0 mm open2300-1.11 W/m2
22:10 5.5 °C -0.2 °C 1013.8 hPa North 14.5 km/h 14.5 km/h 67 % 0.0 mm open2300-1.11 W/m2
23:10 5.4 °C -0.3 °C 1014.1 hPa North 34.1 km/h 34.1 km/h 67 % 0.0 mm open2300-1.11 W/m2
Observations météo à CASSIS
WU-History script by Weather Underground - 1 mb